Time;durP1;ratioP1;P1;durP2;ratioP2;P2;SDS_P1;SDS_P2;PMS_P1;PMS_P2;Temp;Humidity;BMP_temperature;BMP_pressure;BME280_temperature;BME280_humidity;BME280_pressure;Samples;Min_cycle;Max_cycle;Signal;HPM_P1;HPM_P2
2022/06/17 00:01:31;;;;;;;;;;;;;;;;;;4989872;28;1466;-71
2022/06/17 00:03:58;;;;;;;;;;;;;;;;;;4993009;28;1248;-71
2022/06/17 00:06:25;;;;;;;;;;;;;;;;;;4992957;28;791;-71
2022/06/17 00:08:53;;;;;;;;;;;;;;;;;;4993402;28;953;-71
2022/06/17 00:11:21;;;;;;;;;;;;;;;;;;4993063;28;886;-71
2022/06/17 00:13:47;;;;;;;;;;;;;;;;;;4992883;28;1398;-72
2022/06/17 00:16:14;;;;;;;;;;;;;;;;;;4992465;28;1919;-70
2022/06/17 00:18:41;;;;;;;;;;;;;;;;;;4992659;28;1017;-71
2022/06/17 00:21:07;;;;;;;;;;;;;;;;;;4992716;28;962;-71
2022/06/17 00:23:33;;;;;;;;;;;;;;;;;;4992511;28;1305;-71
2022/06/17 00:26:01;;;;;;;;;;;;;;;;;;4992855;28;961;-71
2022/06/17 00:28:28;;;;;;;;;;;;;;;;;;4992429;28;1129;-70
2022/06/17 00:30:54;;;;;;;;;;;;;;;;;;4992525;28;768;-71
2022/06/17 00:33:20;;;;;;;;;;;;;;;;;;4991133;28;1741;-71
2022/06/17 00:35:47;;;;;;;;;;;;;;;;;;4992806;28;1918;-71
2022/06/17 00:38:14;;;;;;;;;;;;;;;;;;4992199;28;811;-71
2022/06/17 00:40:40;;;;;;;;;;;;;;;;;;4992390;28;1072;-71
2022/06/17 00:43:10;;;;;;;;;;;;;;;;;;4991215;28;1277;-71
2022/06/17 00:45:38;;;;;;;;;;;;;;;;;;4990904;28;1392;-71
2022/06/17 00:48:04;;;;;;;;;;;;;;;;;;4990888;28;1164;-71
2022/06/17 00:50:43;;;;;;;;;;;;;;;;;;4990945;28;1021;-72
2022/06/17 00:53:12;;;;;;;;;;;;;;;;;;4991049;28;1207;-71
2022/06/17 00:55:40;;;;;;;;;;;;;;;;;;4991380;28;1922;-72
2022/06/17 00:58:12;;;;;;;;;;;;;;;;;;4992386;28;811;-71
2022/06/17 01:00:39;;;;;;;;;;;;;;;;;;4992062;28;779;-72
2022/06/17 01:03:06;;;;;;;;;;;;;;;;;;4991451;28;1080;-72
2022/06/17 01:05:33;;;;;;;;;;;;;;;;;;4990571;28;1469;-71
2022/06/17 01:08:00;;;;;;;;;;;;;;;;;;4990762;28;1452;-70
2022/06/17 01:10:25;;;;;;;;;;;;;;;;;;4990453;28;1217;-72
2022/06/17 01:12:53;;;;;;;;;;;;;;;;;;4991926;28;1293;-72
2022/06/17 01:15:21;;;;;;;;;;;;;;;;;;4991590;28;1966;-72
2022/06/17 01:17:51;;;;;;;;;;;;;;;;;;4990491;28;1521;-72
2022/06/17 01:20:19;;;;;;;;;;;;;;;;;;4990396;28;1507;-72
2022/06/17 01:22:49;;;;;;;;;;;;;;;;;;4990569;28;1212;-72
2022/06/17 01:25:16;;;;;;;;;;;;;;;;;;4991665;28;1322;-72
2022/06/17 01:27:44;;;;;;;;;;;;;;;;;;4974232;28;1456;-72
2022/06/17 01:30:11;;;;;;;;;;;;;;;;;;4990343;28;1199;-72
2022/06/17 01:32:38;;;;;;;;;;;;;;;;;;4990353;28;1192;-72
2022/06/17 01:35:05;;;;;;;;;;;;;;;;;;4991774;28;1985;-72
2022/06/17 01:37:32;;;;;;;;;;;;;;;;;;4990232;28;1177;-72
2022/06/17 01:40:00;;;;;;;;;;;;;;;;;;4990868;28;1496;-72
2022/06/17 01:42:27;;;;;;;;;;;;;;;;;;4991579;28;1259;-72
2022/06/17 01:44:54;;;;;;;;;;;;;;;;;;4991376;28;1394;-72
2022/06/17 01:47:22;;;;;;;;;;;;;;;;;;4989725;28;1496;-71
2022/06/17 01:49:48;;;;;;;;;;;;;;;;;;4991640;28;1076;-71
2022/06/17 01:52:17;;;;;;;;;;;;;;;;;;4989952;28;969;-71
2022/06/17 01:54:45;;;;;;;;;;;;;;;;;;4986743;28;1910;-72
2022/06/17 01:57:14;;;;;;;;;;;;;;;;;;4991058;28;863;-71
2022/06/17 01:59:41;;;;;;;;;;;;;;;;;;4989901;28;1634;-71
2022/06/17 02:02:07;;;;;;;;;;;;;;;;;;4989786;28;1297;-71
2022/06/17 02:04:34;;;;;;;;;;;;;;;;;;4989938;28;1558;-71
2022/06/17 02:07:01;;;;;;;;;;;;;;;;;;4989785;28;1152;-72
2022/06/17 02:09:28;;;;;;;;;;;;;;;;;;4989654;28;1186;-71
2022/06/17 02:11:54;;;;;;;;;;;;;;;;;;4989974;28;1377;-72
2022/06/17 02:14:22;;;;;;;;;;;;;;;;;;4990746;28;1380;-71
2022/06/17 02:17:06;;;;;;;;;;;;;;;;;;4994631;28;695;-72
2022/06/17 02:19:42;;;;;;;;;;;;;;;;;;4993843;28;1345;-71
2022/06/17 02:22:10;;;;;;;;;;;;;;;;;;4993650;28;1179;-72
2022/06/17 02:24:36;;;;;;;;;;;;;;;;;;4993430;28;1411;-71
2022/06/17 02:27:03;;;;;;;;;;;;;;;;;;4993533;28;1252;-72
2022/06/17 02:29:32;;;;;;;;;;;;;;;;;;4993586;28;1645;-72
2022/06/17 02:32:02;;;;;;;;;;;;;;;;;;4993311;28;1189;-72
2022/06/17 02:34:28;;;;;;;;;;;;;;;;;;4994518;28;1294;-72
2022/06/17 02:36:55;;;;;;;;;;;;;;;;;;4993183;28;2634;-72
2022/06/17 02:39:21;;;;;;;;;;;;;;;;;;4993177;28;1468;-71
2022/06/17 02:41:48;;;;;;;;;;;;;;;;;;4993314;28;1223;-72
2022/06/17 02:44:17;;;;;;;;;;;;;;;;;;4993085;28;1406;-72
2022/06/17 02:46:46;;;;;;;;;;;;;;;;;;4992936;28;1581;-72
2022/06/17 02:49:16;;;;;;;;;;;;;;;;;;4993063;28;1465;-71
2022/06/17 02:51:43;;;;;;;;;;;;;;;;;;4993353;28;1193;-72
2022/06/17 02:54:11;;;;;;;;;;;;;;;;;;4992984;28;1310;-72
2022/06/17 02:56:37;;;;;;;;;;;;;;;;;;4985356;28;1910;-72
2022/06/17 02:59:05;;;;;;;;;;;;;;;;;;4989112;28;1226;-72
2022/06/17 03:01:34;;;;;;;;;;;;;;;;;;5008928;28;1347;-73
2022/06/17 03:04:14;;;;;;;;;;;;;;;;;;4992246;28;2001;-71
2022/06/17 03:06:41;;;;;;;;;;;;;;;;;;4993938;28;2096;-72
2022/06/17 03:09:16;;;;;;;;;;;;;;;;;;4985561;28;1547;-73
2022/06/17 03:11:42;;;;;;;;;;;;;;;;;;5002933;28;1202;-73
2022/06/17 03:14:12;;;;;;;;;;;;;;;;;;4992460;28;1321;-72
2022/06/17 03:16:38;;;;;;;;;;;;;;;;;;5002398;28;1918;-72
2022/06/17 03:19:04;;;;;;;;;;;;;;;;;;4998992;28;1416;-72
2022/06/17 03:21:32;;;;;;;;;;;;;;;;;;4985761;28;1477;-72
2022/06/17 03:24:00;;;;;;;;;;;;;;;;;;4983116;28;1674;-72
2022/06/17 03:26:27;;;;;;;;;;;;;;;;;;4990130;28;1594;-72
2022/06/17 03:28:53;;;;;;;;;;;;;;;;;;4973770;28;1368;-72
2022/06/17 03:31:20;;;;;;;;;;;;;;;;;;5008574;28;1140;-72
2022/06/17 03:33:49;;;;;;;;;;;;;;;;;;4999416;28;1549;-72
2022/06/17 03:36:17;;;;;;;;;;;;;;;;;;4996065;28;1976;-72
2022/06/17 03:38:46;;;;;;;;;;;;;;;;;;5004437;28;1345;-73
2022/06/17 03:41:19;;;;;;;;;;;;;;;;;;5008690;28;1333;-72
2022/06/17 03:43:46;;;;;;;;;;;;;;;;;;5007305;28;1571;-72
2022/06/17 03:46:12;;;;;;;;;;;;;;;;;;4993002;28;1306;-72
2022/06/17 03:48:40;;;;;;;;;;;;;;;;;;4999166;28;1359;-72
2022/06/17 03:51:06;;;;;;;;;;;;;;;;;;4981311;28;1388;-72
2022/06/17 03:53:34;;;;;;;;;;;;;;;;;;4993081;28;1506;-72
2022/06/17 03:56:03;;;;;;;;;;;;;;;;;;5008308;28;1970;-72
2022/06/17 03:58:32;;;;;;;;;;;;;;;;;;5008121;28;936;-70
2022/06/17 04:01:00;;;;;;;;;;;;;;;;;;5001698;28;1294;-73
2022/06/17 04:03:27;;;;;;;;;;;;;;;;;;4993111;28;1357;-71
2022/06/17 04:05:56;;;;;;;;;;;;;;;;;;4991929;28;1349;-72
2022/06/17 04:08:23;;;;;;;;;;;;;;;;;;4992753;28;779;-72
2022/06/17 04:10:49;;;;;;;;;;;;;;;;;;4991502;28;999;-73
2022/06/17 04:13:17;;;;;;;;;;;;;;;;;;4991587;28;1345;-72
2022/06/17 04:15:54;;;;;;;;;;;;;;;;;;4992858;28;1916;-73
2022/06/17 04:18:21;;;;;;;;;;;;;;;;;;4991359;28;1457;-73
2022/06/17 04:20:48;;;;;;;;;;;;;;;;;;4975153;28;1538;-73
2022/06/17 04:23:15;;;;;;;;;;;;;;;;;;4991385;28;1390;-73
2022/06/17 04:25:53;;;;;;;;;;;;;;;;;;4975088;28;1403;-73
2022/06/17 04:28:22;;;;;;;;;;;;;;;;;;4991270;28;1350;-72
2022/06/17 04:30:49;;;;;;;;;;;;;;;;;;4991920;28;1396;-72
2022/06/17 04:33:21;;;;;;;;;;;;;;;;;;4992533;28;800;-72
2022/06/17 04:35:48;;;;;;;;;;;;;;;;;;4991145;28;1915;-73
2022/06/17 04:38:15;;;;;;;;;;;;;;;;;;4989916;28;1471;-73
2022/06/17 04:41:01;;;;;;;;;;;;;;;;;;4974983;28;1318;-72
2022/06/17 04:43:39;;;;;;;;;;;;;;;;;;4974734;28;1408;-73
2022/06/17 04:46:07;;;;;;;;;;;;;;;;;;4990756;28;1125;-71
2022/06/17 04:48:34;;;;;;;;;;;;;;;;;;4990793;28;1587;-73
2022/06/17 04:51:00;;;;;;;;;;;;;;;;;;4990992;28;1303;-73
2022/06/17 04:53:26;;;;;;;;;;;;;;;;;;4974806;28;1613;-73
2022/06/17 04:56:14;;;;;;;;;;;;;;;;;;4992295;28;1951;-72
2022/06/17 04:59:17;;;;;;;;;;;;;;;;;;5000397;28;1251;-72
2022/06/17 05:01:44;;;;;;;;;;;;;;;;;;4991693;28;1342;-73
2022/06/17 05:04:28;;;;;;;;;;;;;;;;;;4976413;28;1678;-73
2022/06/17 05:06:59;;;;;;;;;;;;;;;;;;4992320;28;1312;-74
2022/06/17 05:09:26;;;;;;;;;;;;;;;;;;5007008;28;1432;-74
2022/06/17 05:11:55;;;;;;;;;;;;;;;;;;5006903;28;1324;-72
2022/06/17 05:14:25;;;;;;;;;;;;;;;;;;5006643;28;1439;-73
2022/06/17 05:16:51;;;;;;;;;;;;;;;;;;5003406;28;1922;-73
2022/06/17 05:19:20;;;;;;;;;;;;;;;;;;4979471;28;1446;-72
2022/06/17 05:21:48;;;;;;;;;;;;;;;;;;4990160;28;1312;-73
2022/06/17 05:24:20;;;;;;;;;;;;;;;;;;4975886;28;1386;-73
2022/06/17 05:26:46;;;;;;;;;;;;;;;;;;4996619;28;1323;-72
2022/06/17 05:29:13;;;;;;;;;;;;;;;;;;4979887;28;1520;-73
2022/06/17 05:31:57;;;;;;;;;;;;;;;;;;4987966;28;1380;-73
2022/06/17 05:34:31;;;;;;;;;;;;;;;;;;4987035;28;1422;-70
2022/06/17 05:37:00;;;;;;;;;;;;;;;;;;4971984;28;1915;-71
2022/06/17 05:39:27;;;;;;;;;;;;;;;;;;4989355;28;1409;-71
2022/06/17 05:41:53;;;;;;;;;;;;;;;;;;4980122;28;1386;-70
2022/06/17 05:44:19;;;;;;;;;;;;;;;;;;4990356;28;1436;-72
2022/06/17 05:46:55;;;;;;;;;;;;;;;;;;4980336;28;1388;-70
2022/06/17 05:49:37;;;;;;;;;;;;;;;;;;4966572;28;1487;-71
2022/06/17 05:52:09;;;;;;;;;;;;;;;;;;4972087;28;1187;-71
2022/06/17 05:54:44;;;;;;;;;;;;;;;;;;4971899;28;1358;-71
2022/06/17 05:57:16;;;;;;;;;;;;;;;;;;4977950;28;1977;-71
2022/06/17 05:59:43;;;;;;;;;;;;;;;;;;4978271;28;1423;-72
2022/06/17 06:02:12;;;;;;;;;;;;;;;;;;4974031;28;1487;-72
2022/06/17 06:05:02;;;;;;;;;;;;;;;;;;4969102;28;1484;-73
2022/06/17 06:07:31;;;;;;;;;;;;;;;;;;4986521;28;1525;-72
2022/06/17 06:09:58;;;;;;;;;;;;;;;;;;5000786;28;1476;-70
2022/06/17 06:12:53;;;;;;;;;;;;;;;;;;4980694;28;1056;-70
2022/06/17 06:15:12;;;;;;;;;;;;;;;;;;4991547;28;1470;-71
2022/06/17 06:17:48;;;;;;;;;;;;;;;;;;4991914;28;1983;-72
2022/06/17 06:20:16;;;;;;;;;;;;;;;;;;5005968;28;1575;-71
2022/06/17 06:22:44;;;;;;;;;;;;;;;;;;4993202;28;1500;-72
2022/06/17 06:25:11;;;;;;;;;;;;;;;;;;5003106;28;1733;-71
2022/06/17 06:27:37;;;;;;;;;;;;;;;;;;4972927;28;1205;-71
2022/06/17 06:30:04;;;;;;;;;;;;;;;;;;4973354;28;1582;-71
2022/06/17 06:32:30;;;;;;;;;;;;;;;;;;4972579;28;971;-70
2022/06/17 06:35:15;;;;;;;;;;;;;;;;;;4982843;28;1519;-71
2022/06/17 06:37:41;;;;;;;;;;;;;;;;;;4963799;28;1919;-71
2022/06/17 06:40:08;;;;;;;;;;;;;;;;;;4997839;28;1411;-71
2022/06/17 06:42:35;;;;;;;;;;;;;;;;;;4992018;28;1492;-71
2022/06/17 06:45:22;;;;;;;;;;;;;;;;;;4985279;28;1496;-69
2022/06/17 06:47:49;;;;;;;;;;;;;;;;;;4977088;28;1495;-71
2022/06/17 06:50:24;;;;;;;;;;;;;;;;;;5005678;28;1164;-71
2022/06/17 06:52:54;;;;;;;;;;;;;;;;;;4988208;28;1484;-71
2022/06/17 06:55:20;;;;;;;;;;;;;;;;;;4996519;28;1362;-71
2022/06/17 06:57:47;;;;;;;;;;;;;;;;;;4968682;28;1887;-71
2022/06/17 07:00:14;;;;;;;;;;;;;;;;;;4988948;28;1460;-71
2022/06/17 07:02:41;;;;;;;;;;;;;;;;;;4995228;28;1506;-72
2022/06/17 07:05:08;;;;;;;;;;;;;;;;;;4976145;28;1642;-72
2022/06/17 07:07:37;;;;;;;;;;;;;;;;;;5006091;28;1531;-71
2022/06/17 07:10:04;;;;;;;;;;;;;;;;;;4993705;28;1176;-71
2022/06/17 07:12:30;;;;;;;;;;;;;;;;;;5001639;28;1293;-70
2022/06/17 07:14:56;;;;;;;;;;;;;;;;;;4991378;28;1372;-72
2022/06/17 07:17:23;;;;;;;;;;;;;;;;;;4980877;28;1918;-71
2022/06/17 07:19:49;;;;;;;;;;;;;;;;;;4990950;28;1530;-71
2022/06/17 07:22:15;;;;;;;;;;;;;;;;;;4993140;28;1072;-70
2022/06/17 07:24:42;;;;;;;;;;;;;;;;;;5008075;28;1491;-71
2022/06/17 07:27:08;;;;;;;;;;;;;;;;;;4984340;28;1550;-71
2022/06/17 07:29:35;;;;;;;;;;;;;;;;;;4988620;28;1359;-71
2022/06/17 07:32:01;;;;;;;;;;;;;;;;;;4991086;28;1165;-71
2022/06/17 07:34:27;;;;;;;;;;;;;;;;;;4990809;28;1478;-70
2022/06/17 07:39:56;;;;;;;;;;;;;;;;;;4986608;28;1394;-71
2022/06/17 07:42:24;;;;;;;;;;;;;;;;;;4997719;28;1434;-71
2022/06/17 07:44:51;;;;;;;;;;;;;;;;;;4990489;28;1486;-71
2022/06/17 07:47:18;;;;;;;;;;;;;;;;;;4994944;28;1807;-72
2022/06/17 07:49:45;;;;;;;;;;;;;;;;;;4992172;28;1206;-71
2022/06/17 07:52:11;;;;;;;;;;;;;;;;;;4992060;28;1131;-71
2022/06/17 07:54:37;;;;;;;;;;;;;;;;;;4991437;28;1304;-72
2022/06/17 07:57:04;;;;;;;;;;;;;;;;;;4991751;28;1915;-70
2022/06/17 07:59:31;;;;;;;;;;;;;;;;;;4992075;28;1097;-71
2022/06/17 08:01:57;;;;;;;;;;;;;;;;;;4991722;28;1149;-70
2022/06/17 08:04:23;;;;;;;;;;;;;;;;;;4991824;28;1393;-71
2022/06/17 08:06:50;;;;;;;;;;;;;;;;;;4991287;28;1411;-70
2022/06/17 08:09:16;;;;;;;;;;;;;;;;;;4992298;28;945;-71
2022/06/17 08:11:42;;;;;;;;;;;;;;;;;;4991794;28;1103;-70
2022/06/17 08:14:10;;;;;;;;;;;;;;;;;;4991416;28;1448;-72
2022/06/17 08:16:38;;;;;;;;;;;;;;;;;;4991064;28;1907;-71
2022/06/17 08:19:04;;;;;;;;;;;;;;;;;;4991871;28;785;-71
2022/06/17 08:21:30;;;;;;;;;;;;;;;;;;4991891;28;934;-69
2022/06/17 08:23:56;;;;;;;;;;;;;;;;;;4991970;28;1417;-71
2022/06/17 08:26:22;;;;;;;;;;;;;;;;;;4993566;28;1117;-71
2022/06/17 08:28:49;;;;;;;;;;;;;;;;;;4995285;28;1101;-70
2022/06/17 08:31:15;;;;;;;;;;;;;;;;;;4992194;28;981;-71
2022/06/17 08:33:43;;;;;;;;;;;;;;;;;;4991550;28;1384;-72
2022/06/17 08:36:10;;;;;;;;;;;;;;;;;;4991581;28;1139;-70
2022/06/17 08:38:38;;;;;;;;;;;;;;;;;;4991185;28;1985;-70
2022/06/17 08:41:05;;;;;;;;;;;;;;;;;;4991234;28;1006;-70
2022/06/17 08:43:43;;;;;;;;;;;;;;;;;;4989999;28;1444;-71
2022/06/17 08:46:12;;;;;;;;;;;;;;;;;;4991022;28;947;-70
2022/06/17 08:48:42;;;;;;;;;;;;;;;;;;4990838;28;1076;-71
2022/06/17 08:51:14;;;;;;;;;;;;;;;;;;4991275;28;853;-72
2022/06/17 08:53:47;;;;;;;;;;;;;;;;;;4990675;28;1485;-71
2022/06/17 08:56:16;;;;;;;;;;;;;;;;;;4991005;28;910;-71
2022/06/17 08:58:46;;;;;;;;;;;;;;;;;;4991102;28;1914;-72
2022/06/17 09:01:14;;;;;;;;;;;;;;;;;;4991129;28;1187;-70
2022/06/17 09:03:44;;;;;;;;;;;;;;;;;;4990081;28;1404;-70
2022/06/17 09:06:15;;;;;;;;;;;;;;;;;;4988748;28;2039;-71
2022/06/17 09:09:01;;;;;;;;;;;;;;;;;;4987915;28;2005;-73
2022/06/17 09:11:29;;;;;;;;;;;;;;;;;;4990239;28;1143;-71
2022/06/17 09:13:59;;;;;;;;;;;;;;;;;;5005524;28;1419;-71
2022/06/17 09:16:26;;;;;;;;;;;;;;;;;;4989164;28;1131;-73
2022/06/17 09:18:55;;;;;;;;;;;;;;;;;;4989759;28;1918;-72
2022/06/17 09:21:24;;;;;;;;;;;;;;;;;;4989508;28;1303;-71
2022/06/17 09:23:50;;;;;;;;;;;;;;;;;;4985550;28;1310;-70
2022/06/17 09:26:17;;;;;;;;;;;;;;;;;;4988905;28;1383;-71
2022/06/17 09:28:45;;;;;;;;;;;;;;;;;;4982805;28;975;-71
2022/06/17 09:31:12;;;;;;;;;;;;;;;;;;4990021;28;1293;-72
2022/06/17 09:33:39;;;;;;;;;;;;;;;;;;4988437;28;1444;-72
2022/06/17 09:36:06;;;;;;;;;;;;;;;;;;4984023;28;1371;-71
2022/06/17 09:38:34;;;;;;;;;;;;;;;;;;4984001;28;1915;-72
2022/06/17 09:41:02;;;;;;;;;;;;;;;;;;4990035;28;1164;-72
2022/06/17 09:43:29;;;;;;;;;;;;;;;;;;4990175;28;1401;-71
2022/06/17 09:45:57;;;;;;;;;;;;;;;;;;4986888;28;1584;-72
2022/06/17 09:48:24;;;;;;;;;;;;;;;;;;4985829;28;1626;-71
2022/06/17 09:50:51;;;;;;;;;;;;;;;;;;4984728;28;1356;-70
2022/06/17 09:53:18;;;;;;;;;;;;;;;;;;4988360;28;1443;-72
2022/06/17 09:55:47;;;;;;;;;;;;;;;;;;4988141;28;1393;-73
2022/06/17 09:58:17;;;;;;;;;;;;;;;;;;4980612;28;1918;-72
2022/06/17 10:00:44;;;;;;;;;;;;;;;;;;4989137;28;1577;-73
2022/06/17 10:03:16;;;;;;;;;;;;;;;;;;4988399;28;1525;-72
2022/06/17 10:05:44;;;;;;;;;;;;;;;;;;4989410;28;1404;-73
2022/06/17 10:08:11;;;;;;;;;;;;;;;;;;4989092;28;1483;-73
2022/06/17 10:10:39;;;;;;;;;;;;;;;;;;4987536;28;1422;-73
2022/06/17 10:13:10;;;;;;;;;;;;;;;;;;4988430;28;1379;-73
2022/06/17 10:15:38;;;;;;;;;;;;;;;;;;4988746;28;1379;-74
2022/06/17 10:20:55;;;;;;;;;;;;;;;;;;4989920;28;1105;-72
2022/06/17 10:23:23;;;;;;;;;;;;;;;;;;4987443;28;1527;-72
2022/06/17 10:25:51;;;;;;;;;;;;;;;;;;4989860;28;1420;-73
2022/06/17 10:28:26;;;;;;;;;;;;;;;;;;4985683;28;1450;-74
2022/06/17 10:30:55;;;;;;;;;;;;;;;;;;4988194;28;1512;-73
2022/06/17 10:33:21;;;;;;;;;;;;;;;;;;4988149;28;1383;-72
2022/06/17 10:35:47;;;;;;;;;;;;;;;;;;4986747;28;1429;-72
2022/06/17 10:38:15;;;;;;;;;;;;;;;;;;4982625;28;1981;-72
2022/06/17 10:40:41;;;;;;;;;;;;;;;;;;4987361;28;1391;-73
2022/06/17 10:43:10;;;;;;;;;;;;;;;;;;5006200;22;4209;-75
2022/06/17 10:45:38;;;;;;;;;;;;;;;;;;5011492;28;1416;-74
2022/06/17 10:48:06;;;;;;;;;;;;;;;;;;5010331;28;1401;-75
2022/06/17 10:50:32;;;;;;;;;;;;;;;;;;5012417;28;1327;-76
2022/06/17 10:53:03;;;;;;;;;;;;;;;;;;5008607;28;1403;-75
2022/06/17 10:55:31;;;;;;;;;;;;;;;;;;4994689;28;1391;-73
2022/06/17 10:58:08;;;;;;;;;;;;;;;;;;4994978;28;1922;-74
2022/06/17 11:00:36;;;;;;;;;;;;;;;;;;5008489;28;1495;-75
2022/06/17 11:03:15;;;;;;;;;;;;;;;;;;4993751;28;1382;-75
2022/06/17 11:05:41;;;;;;;;;;;;;;;;;;5010153;28;1523;-74
2022/06/17 11:08:18;;;;;;;;;;;;;;;;;;4999597;28;1365;-74
2022/06/17 11:10:44;;;;;;;;;;;;;;;;;;4989288;28;1414;-74
2022/06/17 11:13:12;;;;;;;;;;;;;;;;;;5005313;28;1519;-74
2022/06/17 11:15:44;;;;;;;;;;;;;;;;;;5010119;28;1434;-75
2022/06/17 11:18:14;;;;;;;;;;;;;;;;;;5003350;28;1948;-74
2022/06/17 11:20:42;;;;;;;;;;;;;;;;;;4991315;28;1418;-74
2022/06/17 11:23:22;;;;;;;;;;;;;;;;;;5005563;28;1514;-75
2022/06/17 11:25:49;;;;;;;;;;;;;;;;;;5011484;28;1352;-75
2022/06/17 11:28:20;;;;;;;;;;;;;;;;;;5007799;28;1348;-74
2022/06/17 11:30:50;;;;;;;;;;;;;;;;;;5012186;28;1088;-74
2022/06/17 11:33:20;;;;;;;;;;;;;;;;;;4991611;28;1708;-74
2022/06/17 11:35:48;;;;;;;;;;;;;;;;;;5012044;28;1155;-76
2022/06/17 11:38:15;;;;;;;;;;;;;;;;;;5010745;28;1993;-76
2022/06/17 11:40:48;;;;;;;;;;;;;;;;;;4994054;28;1481;-75
2022/06/17 11:43:23;;;;;;;;;;;;;;;;;;4996031;28;1443;-76
2022/06/17 11:45:49;;;;;;;;;;;;;;;;;;5007420;28;1406;-78
2022/06/17 11:48:17;;;;;;;;;;;;;;;;;;5011044;28;1139;-75
2022/06/17 11:50:59;;;;;;;;;;;;;;;;;;4993887;28;1403;-76
2022/06/17 11:53:26;;;;;;;;;;;;;;;;;;5003035;28;1719;-77
2022/06/17 11:55:52;;;;;;;;;;;;;;;;;;5010324;28;1398;-76
2022/06/17 11:58:19;;;;;;;;;;;;;;;;;;5003391;28;1910;-77
2022/06/17 12:00:47;;;;;;;;;;;;;;;;;;5009972;28;1332;-77
2022/06/17 12:03:14;;;;;;;;;;;;;;;;;;5010121;28;1494;-77
2022/06/17 12:05:40;;;;;;;;;;;;;;;;;;5011458;28;1163;-76
2022/06/17 12:08:10;;;;;;;;;;;;;;;;;;5009555;28;1622;-76
2022/06/17 12:10:39;;;;;;;;;;;;;;;;;;4999242;28;1189;-75
2022/06/17 12:13:09;;;;;;;;;;;;;;;;;;5010386;28;1533;-74
2022/06/17 12:15:36;;;;;;;;;;;;;;;;;;5006595;28;1467;-76
2022/06/17 12:18:02;;;;;;;;;;;;;;;;;;4991654;28;1914;-77
2022/06/17 12:20:32;;;;;;;;;;;;;;;;;;4996455;28;1424;-77
2022/06/17 12:22:59;;;;;;;;;;;;;;;;;;4993093;28;1503;-76
2022/06/17 12:25:31;;;;;;;;;;;;;;;;;;5010714;28;1396;-77
2022/06/17 12:27:59;;;;;;;;;;;;;;;;;;5010901;28;1041;-76
2022/06/17 12:30:28;;;;;;;;;;;;;;;;;;5008514;28;1406;-78
2022/06/17 12:32:55;;;;;;;;;;;;;;;;;;5006679;28;1438;-76
2022/06/17 12:35:22;;;;;;;;;;;;;;;;;;5009364;28;1498;-76
2022/06/17 12:37:50;;;;;;;;;;;;;;;;;;5009332;28;1926;-76
2022/06/17 12:40:18;;;;;;;;;;;;;;;;;;5007172;28;1019;-76
2022/06/17 12:42:48;;;;;;;;;;;;;;;;;;5008672;28;1720;-76
2022/06/17 12:45:18;;;;;;;;;;;;;;;;;;4996842;28;1474;-79
2022/06/17 12:47:47;;;;;;;;;;;;;;;;;;5004912;28;1789;-79
2022/06/17 12:53:16;;;;;;;;;;;;;;;;;;5005389;28;1810;-78
2022/06/17 12:55:54;;;;;;;;;;;;;;;;;;5006728;28;1285;-77
2022/06/17 12:58:22;;;;;;;;;;;;;;;;;;5009899;28;1910;-76
2022/06/17 13:00:50;;;;;;;;;;;;;;;;;;5009977;28;669;-77
2022/06/17 13:03:21;;;;;;;;;;;;;;;;;;4989500;28;1696;-77
2022/06/17 13:05:48;;;;;;;;;;;;;;;;;;4993078;28;1482;-75
2022/06/17 13:08:21;;;;;;;;;;;;;;;;;;5007670;28;1427;-76
2022/06/17 13:10:49;;;;;;;;;;;;;;;;;;4992199;28;1036;-76
2022/06/17 13:13:22;;;;;;;;;;;;;;;;;;5005352;28;1705;-77
2022/06/17 13:15:52;;;;;;;;;;;;;;;;;;5008989;28;1764;-77
2022/06/17 13:18:19;;;;;;;;;;;;;;;;;;5009547;28;1914;-76
2022/06/17 13:20:47;;;;;;;;;;;;;;;;;;5008594;28;1440;-76
2022/06/17 13:23:14;;;;;;;;;;;;;;;;;;4995354;28;1755;-75
2022/06/17 13:25:41;;;;;;;;;;;;;;;;;;5009942;28;1159;-77
2022/06/17 13:28:12;;;;;;;;;;;;;;;;;;5011307;28;1120;-77
2022/06/17 13:30:39;;;;;;;;;;;;;;;;;;5012070;28;1056;-76
2022/06/17 13:33:11;;;;;;;;;;;;;;;;;;5010921;28;1328;-77
2022/06/17 13:35:38;;;;;;;;;;;;;;;;;;5009804;28;1036;-76
2022/06/17 13:38:05;;;;;;;;;;;;;;;;;;5004266;28;1980;-77
2022/06/17 13:40:34;;;;;;;;;;;;;;;;;;5005179;28;1598;-77
2022/06/17 13:43:04;;;;;;;;;;;;;;;;;;4991905;28;1479;-76
2022/06/17 13:45:34;;;;;;;;;;;;;;;;;;5005947;28;1380;-77
2022/06/17 13:48:01;;;;;;;;;;;;;;;;;;5009390;28;1159;-77
2022/06/17 13:50:32;;;;;;;;;;;;;;;;;;4985572;28;1559;-77
2022/06/17 13:53:00;;;;;;;;;;;;;;;;;;5008195;28;1558;-77
2022/06/17 13:55:30;;;;;;;;;;;;;;;;;;5003782;28;1531;-77
2022/06/17 13:57:58;;;;;;;;;;;;;;;;;;5003487;28;1416;-76
2022/06/17 14:00:28;;;;;;;;;;;;;;;;;;5005758;28;1906;-77
2022/06/17 14:02:56;;;;;;;;;;;;;;;;;;5007899;28;1511;-77
2022/06/17 14:05:24;;;;;;;;;;;;;;;;;;5009467;28;1317;-77
2022/06/17 14:07:58;;;;;;;;;;;;;;;;;;5009276;28;1131;-76
2022/06/17 14:10:35;;;;;;;;;;;;;;;;;;4995564;28;1476;-77
2022/06/17 14:13:02;;;;;;;;;;;;;;;;;;5013183;28;1374;-76
2022/06/17 14:15:29;;;;;;;;;;;;;;;;;;5012175;28;1744;-77
2022/06/17 14:17:56;;;;;;;;;;;;;;;;;;5012990;28;1159;-77
2022/06/17 14:20:25;;;;;;;;;;;;;;;;;;5014222;28;1918;-77
2022/06/17 14:23:13;;;;;;;;;;;;;;;;;;5012765;28;1386;-76
2022/06/17 14:25:47;;;;;;;;;;;;;;;;;;5009387;28;1708;-77
2022/06/17 14:28:32;;;;;;;;;;;;;;;;;;4995204;28;1204;-76
2022/06/17 14:31:11;;;;;;;;;;;;;;;;;;5013073;28;1044;-77
2022/06/17 14:33:39;;;;;;;;;;;;;;;;;;5007191;28;1487;-76
2022/06/17 14:36:08;;;;;;;;;;;;;;;;;;5011233;28;1475;-76
2022/06/17 14:38:36;;;;;;;;;;;;;;;;;;4986420;28;1918;-77
2022/06/17 14:43:49;;;;;;;;;;;;;;;;;;5016135;28;1519;-76
2022/06/17 14:46:15;;;;;;;;;;;;;;;;;;5012195;28;1231;-76
2022/06/17 14:48:43;;;;;;;;;;;;;;;;;;5012501;28;1148;-76
2022/06/17 14:51:34;;;;;;;;;;;;;;;;;;5005972;28;1717;-76
2022/06/17 14:54:03;;;;;;;;;;;;;;;;;;5007428;28;1489;-77
2022/06/17 14:56:37;;;;;;;;;;;;;;;;;;4991533;28;1463;-77
2022/06/17 14:59:13;;;;;;;;;;;;;;;;;;4998425;28;2023;-78
2022/06/17 15:01:39;;;;;;;;;;;;;;;;;;5011559;28;948;-76
2022/06/17 15:04:06;;;;;;;;;;;;;;;;;;5012201;28;1410;-79
2022/06/17 15:06:34;;;;;;;;;;;;;;;;;;5009467;28;1697;-78
2022/06/17 15:09:02;;;;;;;;;;;;;;;;;;5005992;28;2101;-77
2022/06/17 15:11:30;;;;;;;;;;;;;;;;;;5011309;28;1486;-78
2022/06/17 15:14:10;;;;;;;;;;;;;;;;;;5008881;28;1466;-76
2022/06/17 15:16:38;;;;;;;;;;;;;;;;;;4990022;28;1594;-74
2022/06/17 15:19:06;;;;;;;;;;;;;;;;;;4994622;28;1934;-77
2022/06/17 15:21:34;;;;;;;;;;;;;;;;;;5008702;28;1479;-77
2022/06/17 15:24:05;;;;;;;;;;;;;;;;;;4992910;28;1518;-76
2022/06/17 15:26:32;;;;;;;;;;;;;;;;;;5010912;28;1166;-76
2022/06/17 15:28:59;;;;;;;;;;;;;;;;;;5012065;28;1060;-76
2022/06/17 15:31:27;;;;;;;;;;;;;;;;;;4993385;28;1521;-76
2022/06/17 15:33:54;;;;;;;;;;;;;;;;;;5008966;28;1499;-76
2022/06/17 15:36:22;;;;;;;;;;;;;;;;;;5007911;28;1569;-77
2022/06/17 15:38:50;;;;;;;;;;;;;;;;;;4989328;28;1975;-75
2022/06/17 15:41:23;;;;;;;;;;;;;;;;;;4992449;28;910;-77
2022/06/17 15:43:50;;;;;;;;;;;;;;;;;;4992782;28;1373;-75
2022/06/17 15:46:19;;;;;;;;;;;;;;;;;;5004086;28;1439;-76
2022/06/17 15:48:45;;;;;;;;;;;;;;;;;;4994609;28;1544;-76
2022/06/17 15:51:12;;;;;;;;;;;;;;;;;;5026324;28;1018;-76
2022/06/17 15:53:38;;;;;;;;;;;;;;;;;;5010690;28;1516;-77
2022/06/17 15:56:05;;;;;;;;;;;;;;;;;;5006188;28;1631;-75
2022/06/17 15:58:35;;;;;;;;;;;;;;;;;;4992123;28;1404;-76
2022/06/17 16:01:07;;;;;;;;;;;;;;;;;;5009599;28;1938;-76
2022/06/17 16:03:33;;;;;;;;;;;;;;;;;;5019035;28;1504;-77
2022/06/17 16:06:00;;;;;;;;;;;;;;;;;;5014157;28;1554;-77
2022/06/17 16:08:32;;;;;;;;;;;;;;;;;;5013611;28;1172;-76
2022/06/17 16:11:15;;;;;;;;;;;;;;;;;;5014277;28;1021;-77
2022/06/17 16:13:43;;;;;;;;;;;;;;;;;;5032368;28;1278;-77
2022/06/17 16:16:17;;;;;;;;;;;;;;;;;;5031796;28;998;-78
2022/06/17 16:18:46;;;;;;;;;;;;;;;;;;5032356;28;1143;-79
2022/06/17 16:21:33;;;;;;;;;;;;;;;;;;5032081;28;1966;-78
2022/06/17 16:24:15;;;;;;;;;;;;;;;;;;5031987;28;1428;-78
2022/06/17 16:26:42;;;;;;;;;;;;;;;;;;5032148;28;902;-78
2022/06/17 16:29:14;;;;;;;;;;;;;;;;;;5022228;28;1345;-78
2022/06/17 16:31:40;;;;;;;;;;;;;;;;;;5008503;28;1527;-78
2022/06/17 16:34:07;;;;;;;;;;;;;;;;;;5011181;28;1595;-78
2022/06/17 16:36:35;;;;;;;;;;;;;;;;;;5012194;28;1175;-77
2022/06/17 16:39:06;;;;;;;;;;;;;;;;;;5011896;28;1977;-77
2022/06/17 16:44:28;;;;;;;;;;;;;;;;;;4978949;28;1544;-76
2022/06/17 16:46:55;;;;;;;;;;;;;;;;;;5022175;22;3556;-74
2022/06/17 16:49:22;;;;;;;;;;;;;;;;;;5007642;28;1705;-72
2022/06/17 16:51:48;;;;;;;;;;;;;;;;;;5003587;28;1469;-75
2022/06/17 16:54:15;;;;;;;;;;;;;;;;;;5003654;28;1571;-76
2022/06/17 16:56:45;;;;;;;;;;;;;;;;;;5006549;28;1819;-74
2022/06/17 16:59:11;;;;;;;;;;;;;;;;;;5009777;28;1919;-74
2022/06/17 17:01:39;;;;;;;;;;;;;;;;;;5009447;28;1445;-75
2022/06/17 17:04:05;;;;;;;;;;;;;;;;;;5012216;28;1406;-74
2022/06/17 17:06:31;;;;;;;;;;;;;;;;;;5008931;28;1574;-75
2022/06/17 17:08:57;;;;;;;;;;;;;;;;;;5009738;28;1721;-74
2022/06/17 17:11:23;;;;;;;;;;;;;;;;;;5006734;28;1593;-75
2022/06/17 17:13:51;;;;;;;;;;;;;;;;;;5006587;28;1514;-74
2022/06/17 17:16:17;;;;;;;;;;;;;;;;;;5010475;28;1519;-75
2022/06/17 17:18:45;;;;;;;;;;;;;;;;;;5011622;28;1179;-75
2022/06/17 17:21:13;;;;;;;;;;;;;;;;;;5009369;28;2022;-75
2022/06/17 17:23:40;;;;;;;;;;;;;;;;;;5008713;28;1334;-75
2022/06/17 17:26:07;;;;;;;;;;;;;;;;;;5007713;28;1484;-74
2022/06/17 17:28:33;;;;;;;;;;;;;;;;;;5006505;28;1492;-74
2022/06/17 17:31:00;;;;;;;;;;;;;;;;;;5009472;28;1198;-73